createdAt,value
2018-04-06T00:00:14.592Z,99776.06
2018-04-06T00:02:42.047Z,99774.82
2018-04-06T00:05:09.508Z,99785.09
2018-04-06T00:07:36.973Z,99771.02
2018-04-06T00:10:04.436Z,99770.16
2018-04-06T00:12:32.408Z,99781.80
2018-04-06T00:14:59.891Z,99778.85
2018-04-06T00:17:27.355Z,99785.70
2018-04-06T00:19:54.807Z,99792.09
2018-04-06T00:22:22.310Z,99795.08
2018-04-06T00:24:49.772Z,99787.92
2018-04-06T00:27:17.238Z,99796.91
2018-04-06T00:29:44.702Z,99797.73
2018-04-06T00:32:12.172Z,99800.73
2018-04-06T00:34:39.628Z,99799.52
2018-04-06T00:37:07.066Z,99809.28
2018-04-06T00:39:34.524Z,99813.92
2018-04-06T00:42:01.975Z,99805.88
2018-04-06T00:44:29.487Z,99807.61
2018-04-06T00:46:58.247Z,99814.14
2018-04-06T00:49:25.703Z,99815.84
2018-04-06T00:51:53.164Z,99822.69
2018-04-06T00:54:20.684Z,99823.10
2018-04-06T00:56:48.142Z,99824.84
2018-04-06T00:59:15.590Z,99829.57
2018-04-06T01:01:43.057Z,99819.77
2018-04-06T01:04:10.535Z,99832.53
2018-04-06T01:06:37.991Z,99832.53
2018-04-06T01:09:06.310Z,99832.55
2018-04-06T01:11:33.776Z,99836.79
2018-04-06T01:14:01.208Z,99836.27
2018-04-06T01:16:28.663Z,99838.02
2018-04-06T01:18:56.140Z,99846.59
2018-04-06T01:21:23.630Z,99850.02
2018-04-06T01:23:51.088Z,99860.59
2018-04-06T01:26:18.555Z,99863.63
2018-04-06T01:28:46.016Z,99850.03
2018-04-06T01:31:13.488Z,99867.98
2018-04-06T01:33:40.927Z,99877.36
2018-04-06T01:36:08.381Z,99875.25
2018-04-06T01:38:35.855Z,99866.33
2018-04-06T01:41:03.300Z,99880.83
2018-04-06T01:43:30.748Z,99873.59
2018-04-06T01:45:58.203Z,99885.06
2018-04-06T01:48:25.647Z,99874.38
2018-04-06T01:50:53.113Z,99874.02
2018-04-06T01:53:20.558Z,99863.38
2018-04-06T01:55:48.010Z,99864.23
2018-04-06T01:58:15.483Z,99880.82
2018-04-06T02:00:42.933Z,99873.22
2018-04-06T02:03:10.413Z,99871.92
2018-04-06T02:05:37.872Z,99888.10
2018-04-06T02:08:05.335Z,99879.61
2018-04-06T02:10:32.826Z,99891.50
2018-04-06T02:13:00.342Z,99919.19
2018-04-06T02:15:27.826Z,99892.34
2018-04-06T02:17:55.296Z,99892.78
2018-04-06T02:20:22.754Z,99909.39
2018-04-06T02:22:50.223Z,99909.81
2018-04-06T02:25:17.692Z,99903.40
2018-04-06T02:27:45.125Z,99901.75
2018-04-06T02:30:12.583Z,99902.63
2018-04-06T02:32:40.062Z,99914.13
2018-04-06T02:35:07.516Z,99910.71
2018-04-06T02:37:34.971Z,99931.58
2018-04-06T02:40:02.414Z,99932.44
2018-04-06T02:42:29.892Z,99923.53
2018-04-06T02:44:57.348Z,99926.92
2018-04-06T02:47:24.804Z,99936.73
2018-04-06T02:49:52.946Z,99931.19
2018-04-06T02:52:20.409Z,99949.08
2018-04-06T02:54:47.871Z,99955.94
2018-04-06T02:57:15.347Z,99952.52
2018-04-06T02:59:42.790Z,99976.78
2018-04-06T03:02:10.264Z,99942.75
2018-04-06T03:04:37.705Z,99950.45
2018-04-06T03:07:05.181Z,99945.78
2018-04-06T03:09:32.640Z,99971.31
2018-04-06T03:12:00.096Z,99956.02
2018-04-06T03:14:27.584Z,99964.08
2018-04-06T03:16:55.038Z,99968.77
2018-04-06T03:19:22.566Z,99971.78
2018-04-06T03:21:50.035Z,99967.96
2018-04-06T03:24:17.525Z,99966.67
2018-04-06T03:26:44.995Z,99979.05
2018-04-06T03:29:12.462Z,99969.69
2018-04-06T03:31:39.921Z,99970.96
2018-04-06T03:34:07.393Z,99979.47
2018-04-06T03:36:34.839Z,99973.52
2018-04-06T03:39:02.291Z,99984.59
2018-04-06T03:41:29.744Z,99991.39
2018-04-06T03:43:57.200Z,100000.74
2018-04-06T03:46:24.639Z,99991.38
2018-04-06T03:48:52.094Z,99989.25
2018-04-06T03:51:19.667Z,99995.64
2018-04-06T03:53:47.226Z,99999.47
2018-04-06T03:56:14.695Z,100002.44
2018-04-06T03:58:42.152Z,99983.75
2018-04-06T04:01:09.635Z,100005.41
2018-04-06T04:03:37.103Z,100009.66
2018-04-06T04:06:04.639Z,99997.34
2018-04-06T04:08:32.133Z,100003.28
2018-04-06T04:11:00.157Z,100013.48
2018-04-06T04:13:27.623Z,100011.39
2018-04-06T04:15:55.118Z,100011.80
2018-04-06T04:18:22.648Z,100019.87
2018-04-06T04:20:50.063Z,100028.37
2018-04-06T04:23:17.529Z,100022.42
2018-04-06T04:25:44.980Z,100022.00
2018-04-06T04:28:12.483Z,100025.84
2018-04-06T04:30:39.975Z,100046.25
2018-04-06T04:33:07.427Z,100044.98
2018-04-06T04:35:34.914Z,100055.16
2018-04-06T04:38:02.413Z,100060.27
2018-04-06T04:40:29.858Z,100051.75
2018-04-06T04:42:57.412Z,100075.56
2018-04-06T04:45:24.868Z,100053.05
2018-04-06T04:47:52.410Z,100057.73
2018-04-06T04:50:19.883Z,100062.82
2018-04-06T04:52:47.328Z,100056.45
2018-04-06T04:55:14.795Z,100059.44
2018-04-06T04:57:42.268Z,100057.30
2018-04-06T05:00:09.723Z,100062.82
2018-04-06T05:02:37.195Z,100074.30
2018-04-06T05:05:04.655Z,100079.83
2018-04-06T05:07:32.110Z,100078.13
2018-04-06T05:09:59.600Z,100089.59
2018-04-06T05:12:27.064Z,100088.77
2018-04-06T05:14:54.550Z,100097.25
2018-04-06T05:17:22.008Z,100099.40
2018-04-06T05:19:49.460Z,100095.13
2018-04-06T05:22:16.984Z,100107.89
2018-04-06T05:24:44.427Z,100112.98
2018-04-06T05:27:12.026Z,100113.42
2018-04-06T05:29:39.492Z,100128.31
2018-04-06T05:32:06.992Z,100130.84
2018-04-06T05:34:34.472Z,100133.38
2018-04-06T05:37:01.965Z,100131.67
2018-04-06T05:39:29.428Z,100144.89
2018-04-06T05:41:56.938Z,100139.80
2018-04-06T05:44:24.407Z,100142.79
2018-04-06T05:46:51.859Z,100150.41
2018-04-06T05:49:19.326Z,100153.41
2018-04-06T05:51:46.784Z,100160.65
2018-04-06T05:54:14.351Z,100149.18
2018-04-06T05:56:41.867Z,100158.10
2018-04-06T05:59:09.447Z,100161.95
2018-04-06T06:01:37.054Z,100152.16
2018-04-06T06:04:04.568Z,100164.92
2018-04-06T06:06:32.140Z,100179.81
2018-04-06T06:08:59.947Z,100175.57
2018-04-06T06:11:27.439Z,100187.91
2018-04-06T06:13:55.136Z,100187.47
2018-04-06T06:16:22.733Z,100173.02
2018-04-06T06:18:50.204Z,100182.36
2018-04-06T06:21:17.691Z,100230.05
2018-04-06T06:23:45.241Z,100231.75
2018-04-06T06:26:12.818Z,100229.63
2018-04-06T06:28:40.372Z,100208.33
2018-04-06T06:31:07.879Z,100216.83
2018-04-06T06:33:35.660Z,100211.28
2018-04-06T06:36:03.124Z,100205.78
2018-04-06T06:38:30.661Z,100213.87
2018-04-06T06:40:58.176Z,100214.70
2018-04-06T06:43:25.680Z,100210.03
2018-04-06T06:45:53.207Z,100218.55
2018-04-06T06:48:20.715Z,100230.89
2018-04-06T06:50:48.210Z,100231.30
2018-04-06T06:53:15.690Z,100233.02
2018-04-06T06:55:43.169Z,100254.30
2018-04-06T06:58:10.626Z,100251.32
2018-04-06T07:00:38.167Z,100253.04
2018-04-06T07:03:05.668Z,100254.75
2018-04-06T07:05:33.510Z,100256.86
2018-04-06T07:08:01.048Z,100259.42
2018-04-06T07:10:28.668Z,100279.85
2018-04-06T07:12:56.214Z,100275.60
2018-04-06T07:15:23.682Z,100274.34
2018-04-06T07:17:51.177Z,100243.23
2018-04-06T07:20:18.751Z,100285.84
2018-04-06T07:22:46.262Z,100247.08
2018-04-06T07:25:13.812Z,100253.91
2018-04-06T07:27:41.350Z,100254.31
2018-04-06T07:30:08.853Z,100259.85
2018-04-06T07:32:36.408Z,100265.38
2018-04-06T07:35:03.900Z,100269.20
2018-04-06T07:37:31.406Z,100257.30
2018-04-06T07:39:58.882Z,100271.36
2018-04-06T07:42:26.363Z,100273.89
2018-04-06T07:44:53.814Z,100287.54
2018-04-06T07:47:21.287Z,100275.56
2018-04-06T07:49:48.748Z,100270.41
2018-04-06T07:52:16.239Z,100270.41
2018-04-06T07:54:43.714Z,100274.99
2018-04-06T07:57:11.171Z,100276.30
2018-04-06T07:59:38.665Z,100273.82
2018-04-06T08:02:06.176Z,100272.47
2018-04-06T08:04:33.656Z,100266.92
2018-04-06T08:07:01.107Z,100275.84
2018-04-06T08:09:28.558Z,100294.09
2018-04-06T08:11:56.035Z,100283.87
2018-04-06T08:14:23.510Z,100280.09
2018-04-06T08:16:50.971Z,100288.67
2018-04-06T08:19:18.457Z,100296.84
2018-04-06T08:21:45.913Z,100296.41
2018-04-06T08:24:13.392Z,100297.73
2018-04-06T08:26:40.912Z,100301.13
2018-04-06T08:29:08.381Z,100327.13
2018-04-06T08:31:35.867Z,100313.51
2018-04-06T08:34:03.389Z,100299.45
2018-04-06T08:36:30.858Z,100307.55
2018-04-06T08:38:58.344Z,100300.28
2018-04-06T08:41:25.824Z,100316.91
2018-04-06T08:43:53.301Z,100304.95
2018-04-06T08:46:20.766Z,100306.66
2018-04-06T08:48:48.328Z,100304.11
2018-04-06T08:51:15.806Z,100326.27
2018-04-06T08:53:43.345Z,100304.94
2018-04-06T08:56:10.820Z,100320.26
2018-04-06T08:58:38.302Z,100319.47
2018-04-06T09:01:05.774Z,100292.52
2018-04-06T09:03:33.260Z,100283.97
2018-04-06T09:06:00.762Z,100280.09
2018-04-06T09:08:28.247Z,100278.33
2018-04-06T09:10:55.738Z,100277.86
2018-04-06T09:13:23.232Z,100281.34
2018-04-06T09:15:50.715Z,100283.52
2018-04-06T09:18:18.179Z,100283.86
2018-04-06T09:20:45.682Z,100290.92
2018-04-06T09:23:13.191Z,100289.23
2018-04-06T09:25:40.668Z,100307.98
2018-04-06T09:28:08.143Z,100296.64
2018-04-06T09:30:35.656Z,100288.74
2018-04-06T09:33:03.123Z,100285.33
2018-04-06T09:35:30.648Z,100276.05
2018-04-06T09:37:58.132Z,100286.29
2018-04-06T09:40:25.637Z,100283.95
2018-04-06T09:42:53.112Z,100283.11
2018-04-06T09:45:20.608Z,100310.27
2018-04-06T09:47:48.080Z,100272.73
2018-04-06T09:50:15.549Z,100270.09
2018-04-06T09:52:43.015Z,100263.31
2018-04-06T09:55:10.483Z,100274.98
2018-04-06T09:57:37.998Z,100266.39
2018-04-06T10:00:05.490Z,100271.76
2018-04-06T10:02:38.534Z,100271.08
2018-04-06T10:05:06.056Z,100279.14
2018-04-06T10:07:33.523Z,100279.70
2018-04-06T10:10:01.022Z,100288.04
2018-04-06T10:12:28.490Z,100277.91
2018-04-06T10:14:55.946Z,100276.37
2018-04-06T10:17:23.416Z,100274.87
2018-04-06T10:19:50.860Z,100273.61
2018-04-06T10:22:18.336Z,100282.59
2018-04-06T10:24:45.817Z,100285.59
2018-04-06T10:27:13.280Z,100279.99
2018-04-06T10:29:40.765Z,100270.89
2018-04-06T10:32:08.229Z,100294.13
2018-04-06T10:34:35.682Z,100276.50
2018-04-06T10:37:03.123Z,100267.31
2018-04-06T10:39:30.596Z,100277.63
2018-04-06T10:41:58.052Z,100276.57
2018-04-06T10:44:25.536Z,100309.30
2018-04-06T10:46:53.022Z,100272.48
2018-04-06T10:49:20.507Z,100274.62
2018-04-06T10:51:47.968Z,100264.20
2018-04-06T10:54:15.423Z,100288.67
2018-04-06T10:56:42.901Z,100277.53
2018-04-06T10:59:10.389Z,100276.09
2018-04-06T11:01:37.852Z,100280.45
2018-04-06T11:04:05.309Z,100298.75
2018-04-06T11:06:32.783Z,100278.80
2018-04-06T11:09:00.245Z,100274.35
2018-04-06T11:11:27.720Z,100299.49
2018-04-06T11:13:55.168Z,100292.62
2018-04-06T11:16:22.647Z,100294.31
2018-04-06T11:18:50.148Z,100300.95
2018-04-06T11:21:17.612Z,100265.28
2018-04-06T11:23:45.066Z,100264.75
2018-04-06T11:26:12.523Z,100268.66
2018-04-06T11:28:39.980Z,100272.83
2018-04-06T11:31:07.450Z,100258.23
2018-04-06T11:33:34.912Z,100249.05
2018-04-06T11:36:02.371Z,100259.24
2018-04-06T11:38:30.819Z,100252.72
2018-04-06T11:40:58.275Z,100253.86
2018-04-06T11:43:25.724Z,100258.85
2018-04-06T11:45:53.192Z,100264.52
2018-04-06T11:48:20.699Z,100268.41
2018-04-06T11:50:48.148Z,100252.31
2018-04-06T11:53:15.622Z,100260.78
2018-04-06T11:55:43.082Z,100238.98
2018-04-06T11:58:10.555Z,100243.30
2018-04-06T12:00:38.038Z,100239.56
2018-04-06T12:03:05.506Z,100224.92
2018-04-06T12:05:32.979Z,100237.68
2018-04-06T12:08:00.451Z,100226.14
2018-04-06T12:10:27.912Z,100221.61
2018-04-06T12:12:55.372Z,100234.09
2018-04-06T12:15:22.840Z,100216.05
2018-04-06T12:17:50.311Z,100204.57
2018-04-06T12:20:17.767Z,100210.37
2018-04-06T12:22:45.241Z,100200.98
2018-04-06T12:25:12.727Z,100203.64
2018-04-06T12:27:40.191Z,100206.70
2018-04-06T12:30:07.648Z,100206.22
2018-04-06T12:32:35.106Z,100201.34
2018-04-06T12:35:02.600Z,100191.36
2018-04-06T12:37:30.064Z,100187.78
2018-04-06T12:39:57.529Z,100189.83
2018-04-06T12:42:25.000Z,100209.65
2018-04-06T12:44:52.514Z,100199.23
2018-04-06T12:47:19.984Z,100193.05
2018-04-06T12:49:47.436Z,100182.64
2018-04-06T12:52:14.921Z,100177.30
2018-04-06T12:54:42.403Z,100184.80
2018-04-06T12:57:09.892Z,100182.33
2018-04-06T12:59:37.372Z,100181.83
2018-04-06T13:02:04.827Z,100157.95
2018-04-06T13:04:32.280Z,100169.12
2018-04-06T13:06:59.751Z,100174.41
2018-04-06T13:09:27.223Z,100157.00
2018-04-06T13:11:54.700Z,100156.36
2018-04-06T13:14:22.212Z,100168.94
2018-04-06T13:16:49.685Z,100140.83
2018-04-06T13:19:17.156Z,100142.48
2018-04-06T13:21:44.637Z,100142.75
2018-04-06T13:24:12.121Z,100144.75
2018-04-06T13:26:39.584Z,100138.89
2018-04-06T13:29:07.060Z,100144.11
2018-04-06T13:31:34.543Z,100137.64
2018-04-06T13:34:02.020Z,100155.22
2018-04-06T13:36:29.504Z,100140.03
2018-04-06T13:38:56.971Z,100128.85
2018-04-06T13:41:24.429Z,100120.99
2018-04-06T13:43:51.937Z,100140.64
2018-04-06T13:46:19.400Z,100125.34
2018-04-06T13:48:47.143Z,100122.14
2018-04-06T13:51:14.613Z,100115.89
2018-04-06T13:53:42.098Z,100109.19
2018-04-06T13:56:09.569Z,100103.86
2018-04-06T13:58:37.056Z,100102.93
2018-04-06T14:01:04.542Z,100108.73
2018-04-06T14:03:31.999Z,100113.12
2018-04-06T14:05:59.469Z,100103.63
2018-04-06T14:08:26.946Z,100100.69
2018-04-06T14:10:54.453Z,100101.52
2018-04-06T14:13:21.902Z,100106.14
2018-04-06T14:15:49.363Z,100096.39
2018-04-06T14:18:16.836Z,100100.47
2018-04-06T14:20:44.305Z,100095.51
2018-04-06T14:23:11.768Z,100090.55
2018-04-06T14:25:39.257Z,100085.09
2018-04-06T14:28:06.716Z,100088.45
2018-04-06T14:30:34.171Z,100097.44
2018-04-06T14:33:01.656Z,100091.63
2018-04-06T14:35:29.244Z,100096.03
2018-04-06T14:37:56.708Z,100087.47
2018-04-06T14:40:24.197Z,100079.94
2018-04-06T14:42:51.691Z,100073.52
2018-04-06T14:45:19.156Z,100082.06
2018-04-06T14:47:46.636Z,100083.81
2018-04-06T14:50:14.095Z,100078.23
2018-04-06T14:52:41.587Z,100083.22
2018-04-06T14:55:09.077Z,100086.77
2018-04-06T14:57:36.545Z,100084.96
2018-04-06T15:00:04.029Z,100093.31
2018-04-06T15:02:31.505Z,100091.34
2018-04-06T15:04:59.059Z,100087.13
2018-04-06T15:07:26.559Z,100076.89
2018-04-06T15:09:54.017Z,100075.76
2018-04-06T15:12:21.480Z,100069.25
2018-04-06T15:14:48.962Z,100071.61
2018-04-06T15:17:16.437Z,100079.52
2018-04-06T15:19:43.984Z,100072.73
2018-04-06T15:22:11.477Z,100072.16
2018-04-06T15:24:38.952Z,100067.84
2018-04-06T15:27:06.416Z,100075.30
2018-04-06T15:29:33.909Z,100069.56
2018-04-06T15:32:01.396Z,100067.90
2018-04-06T15:34:28.883Z,100068.89
2018-04-06T15:36:56.381Z,100068.46
2018-04-06T15:39:23.845Z,100071.27
2018-04-06T15:41:51.366Z,100077.08
2018-04-06T15:44:18.825Z,100080.83
2018-04-06T15:46:46.288Z,100070.47
2018-04-06T15:49:13.809Z,100072.47
2018-04-06T15:51:41.378Z,100077.02
2018-04-06T15:54:10.972Z,100072.51
2018-04-06T15:56:38.438Z,100071.73
2018-04-06T15:59:05.896Z,100071.92
2018-04-06T16:01:33.480Z,100081.02
2018-04-06T16:04:01.082Z,100077.58
2018-04-06T16:06:28.680Z,100070.33
2018-04-06T16:08:56.155Z,100071.41
2018-04-06T16:11:24.482Z,100069.79
2018-04-06T16:13:51.972Z,100070.86
2018-04-06T16:16:19.437Z,100077.87
2018-04-06T16:18:46.982Z,100075.23
2018-04-06T16:21:14.443Z,100064.78
2018-04-06T16:23:41.937Z,100068.03
2018-04-06T16:26:09.437Z,100069.00
2018-04-06T16:28:36.896Z,100071.50
2018-04-06T16:31:04.393Z,100073.69
2018-04-06T16:33:39.467Z,100072.56
2018-04-06T16:36:06.994Z,100068.94
2018-04-06T16:38:34.478Z,100083.34
2018-04-06T16:41:02.009Z,100079.71
2018-04-06T16:43:29.562Z,100076.27
2018-04-06T16:45:58.732Z,100075.68
2018-04-06T16:48:26.203Z,100082.13
2018-04-06T16:50:53.688Z,100079.34
2018-04-06T16:53:21.212Z,100086.31
2018-04-06T16:55:48.789Z,100078.52
2018-04-06T16:58:16.274Z,100081.30
2018-04-06T17:00:43.746Z,100080.88
2018-04-06T17:03:11.217Z,100090.31
2018-04-06T17:05:38.708Z,100090.55
2018-04-06T17:08:06.195Z,100095.14
2018-04-06T17:10:33.708Z,100091.71
2018-04-06T17:13:01.181Z,100095.59
2018-04-06T17:15:28.632Z,100093.43
2018-04-06T17:17:56.124Z,100102.36
2018-04-06T17:20:23.591Z,100104.48
2018-04-06T17:22:51.127Z,100108.41
2018-04-06T17:25:18.642Z,100113.94
2018-04-06T17:27:46.102Z,100111.81
2018-04-06T17:30:13.611Z,100113.55
2018-04-06T17:32:41.150Z,100120.96
2018-04-06T17:35:08.627Z,100125.13
2018-04-06T17:37:36.118Z,100123.16
2018-04-06T17:40:03.644Z,100127.26
2018-04-06T17:42:31.153Z,100129.98
2018-04-06T17:44:58.810Z,100132.09
2018-04-06T17:47:26.352Z,100135.33
2018-04-06T17:49:54.080Z,100135.84
2018-04-06T17:52:21.943Z,100136.00
2018-04-06T17:54:49.666Z,100134.45
2018-04-06T17:57:17.231Z,100136.22
2018-04-06T17:59:44.712Z,100147.38
2018-04-06T18:02:12.193Z,100144.84
2018-04-06T18:04:41.620Z,100143.66
2018-04-06T18:07:09.113Z,100147.48
2018-04-06T18:09:36.614Z,100153.08
2018-04-06T18:12:04.113Z,100156.58
2018-04-06T18:14:31.591Z,100159.16
2018-04-06T18:16:59.061Z,100156.73
2018-04-06T18:19:26.584Z,100163.95
2018-04-06T18:21:54.357Z,100168.27
2018-04-06T18:24:21.923Z,100169.17
2018-04-06T18:26:49.422Z,100168.80
2018-04-06T18:29:16.947Z,100174.80
2018-04-06T18:31:44.451Z,100178.30
2018-04-06T18:34:11.981Z,100186.44
2018-04-06T18:36:39.467Z,100187.31
2018-04-06T18:39:06.968Z,100184.74
2018-04-06T18:41:34.427Z,100183.08
2018-04-06T18:44:01.926Z,100181.83
2018-04-06T18:46:29.408Z,100188.25
2018-04-06T18:48:56.983Z,100186.52
2018-04-06T18:51:24.980Z,100186.52
2018-04-06T18:53:52.453Z,100187.86
2018-04-06T18:56:19.949Z,100184.05
2018-04-06T18:58:47.441Z,100189.16
2018-04-06T19:01:14.928Z,100191.72
2018-04-06T19:03:42.415Z,100193.88
2018-04-06T19:06:09.884Z,100195.98
2018-04-06T19:08:37.359Z,100190.47
2018-04-06T19:11:04.859Z,100192.58
2018-04-06T19:13:32.330Z,100198.98
2018-04-06T19:15:59.808Z,100194.71
2018-04-06T19:18:27.295Z,100201.53
2018-04-06T19:20:55.024Z,100198.94
2018-04-06T19:23:22.519Z,100194.67
2018-04-06T19:25:49.984Z,100195.53
2018-04-06T19:28:17.485Z,100194.27
2018-04-06T19:30:44.991Z,100191.28
2018-04-06T19:33:12.457Z,100187.45
2018-04-06T19:35:39.985Z,100190.03
2018-04-06T19:38:07.458Z,100192.13
2018-04-06T19:40:34.924Z,100190.87
2018-04-06T19:43:02.418Z,100195.94
2018-04-06T19:45:29.907Z,100196.77
2018-04-06T19:47:57.396Z,100202.31
2018-04-06T19:50:24.874Z,100196.75
2018-04-06T19:52:52.391Z,100200.17
2018-04-06T19:55:19.935Z,100195.92
2018-04-06T19:57:47.496Z,100190.41
2018-04-06T20:00:14.975Z,100191.69
2018-04-06T20:02:42.535Z,100197.59
2018-04-06T20:05:10.044Z,100198.44
2018-04-06T20:07:37.637Z,100204.28
2018-04-06T20:10:05.139Z,100202.16
2018-04-06T20:12:32.600Z,100199.18
2018-04-06T20:15:00.083Z,100202.98
2018-04-06T20:17:27.597Z,100199.17
2018-04-06T20:19:55.075Z,100191.98
2018-04-06T20:22:22.563Z,100194.49
2018-04-06T20:24:50.034Z,100195.33
2018-04-06T20:27:17.547Z,100191.91
2018-04-06T20:29:45.052Z,100189.80
2018-04-06T20:32:12.524Z,100193.67
2018-04-06T20:34:40.016Z,100182.57
2018-04-06T20:37:07.488Z,100185.52
2018-04-06T20:39:34.981Z,100186.73
2018-04-06T20:42:02.463Z,100185.85
2018-04-06T20:44:29.940Z,100183.72
2018-04-06T20:46:57.599Z,100185.41
2018-04-06T20:49:25.099Z,100187.53
2018-04-06T20:51:52.577Z,100182.00
2018-04-06T20:54:20.071Z,100182.38
2018-04-06T20:56:47.581Z,100178.96
2018-04-06T20:59:15.236Z,100181.91
2018-04-06T21:01:42.724Z,100173.01
2018-04-06T21:04:10.172Z,100175.62
2018-04-06T21:06:37.644Z,100176.48
2018-04-06T21:09:06.024Z,100172.70
2018-04-06T21:11:33.505Z,100171.41
2018-04-06T21:14:00.989Z,100170.61
2018-04-06T21:16:28.463Z,100162.92
2018-04-06T21:18:56.017Z,100159.48
2018-04-06T21:21:23.487Z,100162.84
2018-04-06T21:23:51.055Z,100165.53
2018-04-06T21:26:18.547Z,100165.11
2018-04-06T21:28:46.034Z,100157.98
2018-04-06T21:31:13.541Z,100161.77
2018-04-06T21:33:41.032Z,100153.66
2018-04-06T21:36:08.557Z,100160.88
2018-04-06T21:38:36.113Z,100158.73
2018-04-06T21:41:03.591Z,100156.12
2018-04-06T21:43:31.090Z,100155.30
2018-04-06T21:45:58.587Z,100157.86
2018-04-06T21:48:26.115Z,100157.35
2018-04-06T21:50:53.605Z,100160.74
2018-04-06T21:53:21.088Z,100164.19
2018-04-06T21:55:48.609Z,100163.80
2018-04-06T21:58:16.109Z,100169.75
2018-04-06T22:00:43.623Z,100169.77
2018-04-06T22:03:11.156Z,100169.66
2018-04-06T22:05:38.646Z,100172.18
2018-04-06T22:08:06.108Z,100175.46
2018-04-06T22:10:33.599Z,100168.65
2018-04-06T22:13:01.205Z,100169.00
2018-04-06T22:15:28.686Z,100171.91
2018-04-06T22:17:56.188Z,100173.13
2018-04-06T22:20:23.680Z,100173.53
2018-04-06T22:22:51.230Z,100163.83
2018-04-06T22:25:18.718Z,100171.25
2018-04-06T22:27:46.168Z,100175.53
2018-04-06T22:30:13.647Z,100172.54
2018-04-06T22:32:41.516Z,100181.39
2018-04-06T22:35:08.997Z,100172.81
2018-04-06T22:37:36.475Z,100170.78
2018-04-06T22:40:03.973Z,100173.44
2018-04-06T22:42:31.444Z,100180.99
2018-04-06T22:44:58.908Z,100181.34
2018-04-06T22:47:26.396Z,100178.78
2018-04-06T22:49:53.836Z,100181.22
2018-04-06T22:52:21.372Z,100185.13
2018-04-06T22:54:48.848Z,100178.47
2018-04-06T22:57:16.326Z,100178.80
2018-04-06T22:59:43.803Z,100184.22
2018-04-06T23:02:11.299Z,100182.00
2018-04-06T23:04:38.758Z,100179.33
2018-04-06T23:07:06.222Z,100180.80
2018-04-06T23:09:33.696Z,100181.56
2018-04-06T23:12:01.157Z,100186.66
2018-04-06T23:14:28.717Z,100187.03
2018-04-06T23:16:56.180Z,100189.80
2018-04-06T23:19:23.663Z,100184.62
2018-04-06T23:21:51.153Z,100183.91
2018-04-06T23:24:18.623Z,100183.91
2018-04-06T23:26:46.100Z,100186.34
2018-04-06T23:29:13.564Z,100181.13
2018-04-06T23:31:41.045Z,100182.44
2018-04-06T23:34:08.528Z,100183.53
2018-04-06T23:36:35.994Z,100176.66
2018-04-06T23:39:03.506Z,100179.95
2018-04-06T23:41:30.977Z,100175.55
2018-04-06T23:43:58.495Z,100171.73
2018-04-06T23:46:26.030Z,100170.20
2018-04-06T23:48:53.507Z,100172.36
2018-04-06T23:51:20.957Z,100179.06
2018-04-06T23:53:48.424Z,100171.67
2018-04-06T23:56:15.888Z,100174.62
2018-04-06T23:58:43.335Z,100172.88
